Time;durP1;ratioP1;P1;durP2;ratioP2;P2;SDS_P1;SDS_P2;PMS_P1;PMS_P2;Temp;Humidity;BMP_temperature;BMP_pressure;BME280_temperature;BME280_humidity;BME280_pressure;Samples;Min_cycle;Max_cycle;Signal;HPM_P1;HPM_P2
2021/10/12 00:00:28;;;;;;;15.80;9.93;;;9.50;72.60;;;;;;5073471;28;20213;-64
2021/10/12 00:02:55;;;;;;;11.93;9.25;;;9.50;73.30;;;;;;5074054;28;20602;-64
2021/10/12 00:05:23;;;;;;;13.23;10.70;;;9.50;73.40;;;;;;5073792;28;20231;-64
2021/10/12 00:07:52;;;;;;;12.13;9.00;;;9.50;74.10;;;;;;5073857;28;20670;-64
2021/10/12 00:10:19;;;;;;;12.25;8.43;;;9.40;74.20;;;;;;5073412;28;20205;-64
2021/10/12 00:12:46;;;;;;;18.10;9.82;;;9.50;74.30;;;;;;5073227;28;20650;-64
2021/10/12 00:15:14;;;;;;;12.05;8.82;;;9.50;73.50;;;;;;5073395;28;20177;-64
2021/10/12 00:17:41;;;;;;;16.42;9.35;;;9.50;73.90;;;;;;5073729;28;20193;-64
2021/10/12 00:20:09;;;;;;;10.30;9.20;;;9.40;74.60;;;;;;5073062;28;20685;-65
2021/10/12 00:22:41;;;;;;;11.77;8.32;;;9.40;74.30;;;;;;5073545;28;20220;-64
2021/10/12 00:25:10;;;;;;;12.18;9.70;;;9.40;74.60;;;;;;5072985;28;20209;-64
2021/10/12 00:27:37;;;;;;;10.05;8.18;;;9.40;75.40;;;;;;5073529;28;20249;-64
2021/10/12 00:30:06;;;;;;;11.63;9.43;;;9.40;75.40;;;;;;5072448;28;20282;-64
2021/10/12 00:32:34;;;;;;;12.05;9.65;;;9.30;75.40;;;;;;5072604;28;20181;-64
2021/10/12 00:35:02;;;;;;;12.57;9.15;;;9.30;76.40;;;;;;5073243;28;20189;-64
2021/10/12 00:37:29;;;;;;;8.98;8.05;;;9.30;77.10;;;;;;5072938;28;20251;-64
2021/10/12 00:39:56;;;;;;;13.23;9.80;;;9.30;77.30;;;;;;5073278;28;20225;-65
2021/10/12 00:42:25;;;;;;;10.60;8.27;;;9.30;78.00;;;;;;5072771;28;20598;-65
2021/10/12 00:44:52;;;;;;;10.55;8.73;;;9.30;79.00;;;;;;5071865;28;20544;-64
2021/10/12 00:47:19;;;;;;;13.88;11.35;;;9.40;78.50;;;;;;5073178;28;20189;-64
2021/10/12 00:49:46;;;;;;;11.82;8.98;;;9.40;78.60;;;;;;5072790;28;20198;-63
2021/10/12 00:52:14;;;;;;;9.23;8.23;;;9.40;78.20;;;;;;5073314;28;20194;-68
2021/10/12 00:54:41;;;;;;;11.70;8.40;;;9.40;78.60;;;;;;5072518;28;20265;-64
2021/10/12 00:57:11;;;;;;;14.45;10.10;;;9.40;78.80;;;;;;5072993;28;20193;-64
2021/10/12 00:59:41;;;;;;;15.57;10.85;;;9.40;80.10;;;;;;5071373;28;20273;-64
2021/10/12 01:02:09;;;;;;;11.65;9.15;;;9.40;80.60;;;;;;5072721;28;20194;-64
2021/10/12 01:04:37;;;;;;;16.95;10.88;;;9.30;81.30;;;;;;5072446;28;20200;-64
2021/10/12 01:07:04;;;;;;;17.02;11.27;;;9.30;81.80;;;;;;5072832;28;20202;-64
2021/10/12 01:09:31;;;;;;;18.02;10.95;;;9.30;82.20;;;;;;5072304;28;20221;-64
2021/10/12 01:12:02;;;;;;;15.35;11.55;;;9.40;82.50;;;;;;5072284;28;20194;-64
2021/10/12 01:14:29;;;;;;;16.67;12.00;;;9.40;81.90;;;;;;5072239;28;20221;-64
2021/10/12 01:16:58;;;;;;;16.80;11.68;;;9.40;81.20;;;;;;5072580;28;20194;-67
2021/10/12 01:19:26;;;;;;;16.00;11.82;;;9.50;81.40;;;;;;5071828;28;20193;-64
2021/10/12 01:21:54;;;;;;;17.50;11.23;;;9.50;82.20;;;;;;5072318;28;20275;-64
2021/10/12 01:24:23;;;;;;;14.02;11.70;;;9.50;82.30;;;;;;5072795;28;20193;-64
2021/10/12 01:26:53;;;;;;;16.25;11.27;;;9.50;81.80;;;;;;5072077;28;20247;-64
2021/10/12 01:29:24;;;;;;;16.88;12.13;;;9.50;81.10;;;;;;5072559;28;20198;-64
2021/10/12 01:31:51;;;;;;;21.00;13.90;;;9.50;80.60;;;;;;5072235;28;20555;-64
2021/10/12 01:34:21;;;;;;;19.70;12.98;;;9.40;80.90;;;;;;5072522;28;20197;-64
2021/10/12 01:36:49;;;;;;;17.60;13.43;;;9.40;82.00;;;;;;5071666;28;20680;-64
2021/10/12 01:39:19;;;;;;;18.70;14.38;;;9.40;82.60;;;;;;5072440;28;20201;-64
2021/10/12 01:41:47;;;;;;;19.17;13.88;;;9.40;82.70;;;;;;5070986;28;20219;-64
2021/10/12 01:44:16;;;;;;;17.58;13.15;;;9.50;83.00;;;;;;5072563;28;20193;-64
2021/10/12 01:46:44;;;;;;;24.70;14.68;;;9.50;82.60;;;;;;5071747;28;20636;-64
2021/10/12 01:49:11;;;;;;;19.77;14.73;;;9.50;82.60;;;;;;5071039;28;20186;-64
2021/10/12 01:51:38;;;;;;;23.05;15.27;;;9.50;82.30;;;;;;5071942;28;20239;-66
2021/10/12 01:54:15;;;;;;;19.70;13.43;;;9.50;82.70;;;;;;5072275;28;20205;-64
2021/10/12 01:56:52;;;;;;;17.75;12.98;;;9.40;82.40;;;;;;5071786;28;20196;-64
2021/10/12 01:59:20;;;;;;;17.63;14.10;;;9.40;82.80;;;;;;5052340;28;20193;-63
2021/10/12 02:01:47;;;;;;;23.17;15.02;;;9.40;83.30;;;;;;5071602;28;20279;-64
2021/10/12 02:04:14;;;;;;;19.35;15.15;;;9.30;84.00;;;;;;5071882;28;20194;-63
2021/10/12 02:06:42;;;;;;;21.33;13.85;;;9.30;85.20;;;;;;5071485;28;20238;-63
2021/10/12 02:09:09;;;;;;;17.95;12.75;;;9.40;85.00;;;;;;5071406;28;20220;-63
2021/10/12 02:11:38;;;;;;;20.30;14.23;;;9.40;84.50;;;;;;5072073;28;20284;-64
2021/10/12 02:14:07;;;;;;;25.52;14.98;;;9.50;84.90;;;;;;5071510;28;20190;-64
2021/10/12 02:16:34;;;;;;;20.13;14.18;;;9.50;84.90;;;;;;5071934;28;20232;-64
2021/10/12 02:19:01;;;;;;;22.15;14.82;;;9.50;85.00;;;;;;5072066;28;20205;-63
2021/10/12 02:21:28;;;;;;;22.80;16.27;;;9.60;84.60;;;;;;5071680;28;20249;-63
2021/10/12 02:23:56;;;;;;;23.08;14.50;;;9.50;84.30;;;;;;5071950;28;20189;-64
2021/10/12 02:26:23;;;;;;;19.40;15.82;;;9.50;84.60;;;;;;5071264;28;20212;-64
2021/10/12 02:28:50;;;;;;;21.48;16.02;;;9.50;85.00;;;;;;5071976;28;20189;-63
2021/10/12 02:31:19;;;;;;;21.77;15.73;;;9.40;85.00;;;;;;5071539;28;20190;-66
2021/10/12 02:33:46;;;;;;;23.15;16.08;;;9.50;85.60;;;;;;5072053;28;20194;-64
2021/10/12 02:36:14;;;;;;;21.88;14.65;;;9.40;85.10;;;;;;5071548;28;20223;-63
2021/10/12 02:38:41;;;;;;;22.10;15.43;;;9.40;85.30;;;;;;5071886;28;20236;-64
2021/10/12 02:41:08;;;;;;;23.10;15.02;;;9.50;85.60;;;;;;5071393;28;20213;-63
2021/10/12 02:43:36;;;;;;;19.38;15.20;;;9.50;85.90;;;;;;5071850;28;20221;-63
2021/10/12 02:46:03;;;;;;;24.17;16.88;;;9.50;85.70;;;;;;5071440;28;20235;-64
2021/10/12 02:48:31;;;;;;;23.55;16.85;;;9.40;85.70;;;;;;5071376;28;20206;-63
2021/10/12 02:50:59;;;;;;;23.02;17.90;;;9.50;86.10;;;;;;5069863;28;20231;-64
2021/10/12 02:53:26;;;;;;;24.88;16.65;;;9.40;86.00;;;;;;5073195;28;20185;-64
2021/10/12 02:55:53;;;;;;;22.80;16.90;;;9.40;86.20;;;;;;5075560;28;20548;-63
2021/10/12 02:58:20;;;;;;;22.77;17.05;;;9.40;86.30;;;;;;5074772;28;20186;-64
2021/10/12 03:00:47;;;;;;;22.58;17.73;;;9.40;86.30;;;;;;5075203;28;20752;-64
2021/10/12 03:03:15;;;;;;;27.10;19.70;;;9.40;86.50;;;;;;5074710;28;20631;-64
2021/10/12 03:05:46;;;;;;;33.53;22.20;;;9.40;87.00;;;;;;5075203;28;20197;-63
2021/10/12 03:08:14;;;;;;;21.50;18.35;;;9.40;87.10;;;;;;5074688;28;20241;-63
2021/10/12 03:10:42;;;;;;;27.55;19.23;;;9.30;87.40;;;;;;5074993;28;20196;-67
2021/10/12 03:13:09;;;;;;;26.10;18.35;;;9.30;88.00;;;;;;5074360;28;20186;-64
2021/10/12 03:15:36;;;;;;;28.17;19.10;;;9.40;88.00;;;;;;5075015;28;20225;-64
2021/10/12 03:18:03;;;;;;;25.42;17.45;;;9.40;87.80;;;;;;5074697;28;20239;-63
2021/10/12 03:20:30;;;;;;;24.52;16.42;;;9.40;88.20;;;;;;5074316;28;20217;-64
2021/10/12 03:22:59;;;;;;;25.30;19.10;;;9.30;88.30;;;;;;5074087;28;20652;-64
2021/10/12 03:25:26;;;;;;;24.25;17.52;;;9.30;88.40;;;;;;5074790;28;20239;-64
2021/10/12 03:27:53;;;;;;;24.30;16.20;;;9.40;88.70;;;;;;5074920;28;20190;-64
2021/10/12 03:30:20;;;;;;;23.65;18.02;;;9.30;88.30;;;;;;5074783;28;20652;-69
2021/10/12 03:32:48;;;;;;;25.73;18.05;;;9.30;89.00;;;;;;5074164;28;20181;-64
2021/10/12 03:35:18;;;;;;;25.23;17.55;;;9.30;89.60;;;;;;5074649;28;20212;-63
2021/10/12 03:37:46;;;;;;;22.63;17.10;;;9.40;89.40;;;;;;5074430;28;20189;-63
2021/10/12 03:40:14;;;;;;;25.75;18.05;;;9.40;89.20;;;;;;5074275;28;20190;-64
2021/10/12 03:42:41;;;;;;;21.92;16.75;;;9.40;88.90;;;;;;5074043;28;20217;-63
2021/10/12 03:45:09;;;;;;;28.13;18.70;;;9.40;89.10;;;;;;5074460;28;20265;-64
2021/10/12 03:47:36;;;;;;;22.40;17.63;;;9.50;89.40;;;;;;5073775;28;20652;-63
2021/10/12 03:50:07;;;;;;;27.00;20.42;;;9.50;89.50;;;;;;5074397;28;20190;-64
2021/10/12 03:52:34;;;;;;;26.73;17.30;;;9.60;90.10;;;;;;5073897;28;20713;-64
2021/10/12 03:55:01;;;;;;;24.50;17.98;;;9.60;89.10;;;;;;5074370;28;20205;-63
2021/10/12 03:57:30;;;;;;;28.67;20.17;;;9.60;89.00;;;;;;5074007;28;20189;-64
2021/10/12 03:59:57;;;;;;;27.65;17.83;;;9.50;89.40;;;;;;5074321;28;20591;-64
2021/10/12 04:02:24;;;;;;;25.15;17.55;;;9.60;89.80;;;;;;5073463;28;20214;-64
2021/10/12 04:04:51;;;;;;;24.90;18.85;;;9.40;89.10;;;;;;5073399;28;20193;-64
2021/10/12 04:07:19;;;;;;;23.40;17.65;;;9.40;89.50;;;;;;5073508;28;20224;-64
2021/10/12 04:09:46;;;;;;;29.23;18.70;;;9.30;89.40;;;;;;5074426;28;20190;-63
2021/10/12 04:12:13;;;;;;;28.27;19.38;;;9.30;90.10;;;;;;5073697;28;20185;-63
2021/10/12 04:14:42;;;;;;;33.78;18.60;;;9.20;90.30;;;;;;5073956;28;20217;-63
2021/10/12 04:17:09;;;;;;;31.05;19.13;;;9.20;90.20;;;;;;5073880;28;20193;-63
2021/10/12 04:19:36;;;;;;;31.15;20.17;;;9.20;90.30;;;;;;5073710;28;20250;-64
2021/10/12 04:22:04;;;;;;;33.15;18.98;;;9.10;90.40;;;;;;5073670;28;20221;-64
2021/10/12 04:24:31;;;;;;;28.13;18.42;;;9.10;90.60;;;;;;5073081;28;20182;-64
2021/10/12 04:26:58;;;;;;;27.60;19.75;;;9.10;90.60;;;;;;5073550;28;20783;-68
2021/10/12 04:29:25;;;;;;;26.98;19.40;;;9.10;90.70;;;;;;5073349;28;20182;-64
2021/10/12 04:31:55;;;;;;;27.35;20.00;;;9.10;90.70;;;;;;5073818;28;20637;-64
2021/10/12 04:34:22;;;;;;;26.52;17.70;;;9.10;90.60;;;;;;5073319;28;20185;-64
2021/10/12 04:36:49;;;;;;;26.58;17.90;;;9.10;90.40;;;;;;5073630;28;20190;-63
2021/10/12 04:39:16;;;;;;;23.23;16.58;;;9.10;90.50;;;;;;5072900;28;20186;-63
2021/10/12 04:41:43;;;;;;;24.45;16.98;;;9.10;90.50;;;;;;5073759;28;20267;-64
2021/10/12 04:44:11;;;;;;;22.88;17.00;;;9.20;90.50;;;;;;5073230;28;20239;-64
2021/10/12 04:46:39;;;;;;;22.30;16.67;;;9.20;90.40;;;;;;5072914;28;20706;-64
2021/10/12 04:49:09;;;;;;;26.02;17.55;;;9.30;90.40;;;;;;5073655;28;20189;-64
2021/10/12 04:51:36;;;;;;;23.90;17.00;;;9.30;90.40;;;;;;5072761;28;20181;-63
2021/10/12 04:54:03;;;;;;;25.80;16.17;;;9.30;90.20;;;;;;5072738;28;20189;-63
2021/10/12 04:56:30;;;;;;;23.80;17.10;;;9.30;90.30;;;;;;5073232;28;20236;-64
2021/10/12 04:58:57;;;;;;;22.45;16.20;;;9.30;90.10;;;;;;5072911;28;20721;-64
2021/10/12 05:01:25;;;;;;;21.42;15.57;;;9.30;90.10;;;;;;5072958;28;20221;-64
2021/10/12 05:03:52;;;;;;;20.50;15.75;;;9.40;90.00;;;;;;5073049;28;20186;-63
2021/10/12 05:06:20;;;;;;;23.27;15.85;;;9.30;90.00;;;;;;5073261;28;20194;-64
2021/10/12 05:08:48;;;;;;;25.48;16.33;;;9.30;90.20;;;;;;5072490;28;20218;-63
2021/10/12 05:11:15;;;;;;;29.88;20.13;;;9.30;90.20;;;;;;5072925;28;20667;-63
2021/10/12 05:13:46;;;;;;;28.52;20.10;;;9.30;90.30;;;;;;5072650;28;20194;-64
2021/10/12 05:16:14;;;;;;;23.85;15.90;;;9.30;90.40;;;;;;5072600;28;20280;-64
2021/10/12 05:18:43;;;;;;;24.13;16.35;;;9.30;90.50;;;;;;5072109;28;20298;-64
2021/10/12 05:21:10;;;;;;;26.23;17.33;;;9.30;90.30;;;;;;5072559;28;20216;-64
2021/10/12 05:23:39;;;;;;;22.95;16.55;;;9.30;90.20;;;;;;5072813;28;20255;-64
2021/10/12 05:26:07;;;;;;;26.00;18.80;;;9.30;90.20;;;;;;5072562;28;20193;-64
2021/10/12 05:28:35;;;;;;;27.65;19.73;;;9.30;90.40;;;;;;5072805;28;20247;-63
2021/10/12 05:31:03;;;;;;;26.08;17.15;;;9.30;90.30;;;;;;5072193;28;20186;-64
2021/10/12 05:33:30;;;;;;;22.83;16.38;;;9.20;90.30;;;;;;5072836;28;20648;-64
2021/10/12 05:35:57;;;;;;;22.83;15.80;;;9.20;90.50;;;;;;5072299;28;20189;-64
2021/10/12 05:38:25;;;;;;;22.50;15.77;;;9.20;90.50;;;;;;5072851;28;20314;-64
2021/10/12 05:40:54;;;;;;;24.00;15.57;;;9.20;90.70;;;;;;5072283;28;20194;-64
2021/10/12 05:43:21;;;;;;;27.45;18.13;;;9.20;90.50;;;;;;5072917;28;20194;-64
2021/10/12 05:45:49;;;;;;;22.17;15.02;;;9.20;90.70;;;;;;5072485;28;20194;-64
2021/10/12 05:48:17;;;;;;;23.38;17.48;;;9.20;90.80;;;;;;5072707;28;20731;-63
2021/10/12 05:50:46;;;;;;;23.60;16.38;;;9.20;90.70;;;;;;5070119;28;20663;-68
2021/10/12 05:53:24;;;;;;;23.33;14.50;;;9.30;90.70;;;;;;5070508;28;20186;-64
2021/10/12 05:55:56;;;;;;;20.80;14.82;;;9.30;90.70;;;;;;5070797;28;20239;-64
2021/10/12 05:58:35;;;;;;;23.58;15.57;;;9.20;90.80;;;;;;5070766;28;20208;-64
2021/10/12 06:01:05;;;;;;;23.77;15.68;;;9.30;91.00;;;;;;5070527;28;20724;-64
2021/10/12 06:03:32;;;;;;;21.38;14.43;;;9.30;90.70;;;;;;5070670;28;20189;-65
2021/10/12 06:06:00;;;;;;;19.77;13.88;;;9.20;90.80;;;;;;5066264;28;20225;-64
2021/10/12 06:08:30;;;;;;;20.83;14.80;;;9.20;91.00;;;;;;5070826;28;20324;-65
2021/10/12 06:10:58;;;;;;;23.38;16.27;;;9.30;91.00;;;;;;5070314;28;20186;-64
2021/10/12 06:13:26;;;;;;;23.73;15.93;;;9.40;91.00;;;;;;5070421;28;20246;-64
2021/10/12 06:15:53;;;;;;;24.65;15.55;;;9.40;90.80;;;;;;5070424;28;20193;-64
2021/10/12 06:18:20;;;;;;;23.73;15.38;;;9.40;90.80;;;;;;5070869;28;20194;-64
2021/10/12 06:20:48;;;;;;;23.25;15.10;;;9.30;90.80;;;;;;5070556;28;20231;-64
2021/10/12 06:23:16;;;;;;;20.90;14.38;;;9.30;91.20;;;;;;5069902;28;20217;-64
2021/10/12 06:25:44;;;;;;;20.40;15.00;;;9.30;91.20;;;;;;5070479;28;20193;-63
2021/10/12 06:28:15;;;;;;;21.55;15.35;;;9.30;91.40;;;;;;5071662;28;20210;-64
2021/10/12 06:30:42;;;;;;;17.88;13.45;;;9.30;91.20;;;;;;5073519;28;20190;-64
2021/10/12 06:33:09;;;;;;;20.05;14.07;;;9.30;91.50;;;;;;5074507;28;20198;-63
2021/10/12 06:35:37;;;;;;;21.60;14.48;;;9.30;91.30;;;;;;5073686;28;20281;-63
2021/10/12 06:38:05;;;;;;;20.17;14.80;;;9.20;91.40;;;;;;5074284;28;20190;-64
2021/10/12 06:40:35;;;;;;;22.55;13.45;;;9.20;91.50;;;;;;5073751;28;20280;-64
2021/10/12 06:43:03;;;;;;;18.92;12.93;;;9.20;91.70;;;;;;5073691;28;20229;-65
2021/10/12 06:45:32;;;;;;;17.55;12.57;;;9.20;91.90;;;;;;5074327;28;20284;-64
2021/10/12 06:48:04;;;;;;;17.27;13.90;;;9.30;91.80;;;;;;5073019;28;20201;-64
2021/10/12 06:50:31;;;;;;;18.80;12.60;;;9.40;91.90;;;;;;5073957;28;20975;-65
2021/10/12 06:52:59;;;;;;;20.90;13.77;;;9.40;91.40;;;;;;5073321;28;20194;-64
2021/10/12 06:55:26;;;;;;;21.38;13.50;;;9.40;91.30;;;;;;5073980;28;20196;-65
2021/10/12 06:57:54;;;;;;;18.85;12.52;;;9.40;91.30;;;;;;5069448;28;20277;-63
2021/10/12 07:00:21;;;;;;;25.70;13.88;;;9.50;91.20;;;;;;5073656;28;20239;-64
2021/10/12 07:02:50;;;;;;;17.88;12.52;;;9.50;91.20;;;;;;5073725;28;20225;-63
2021/10/12 07:05:18;;;;;;;19.20;13.55;;;9.50;91.20;;;;;;5072937;28;20197;-64
2021/10/12 07:07:45;;;;;;;17.58;13.10;;;9.60;91.10;;;;;;5073594;28;20248;-65
2021/10/12 07:10:14;;;;;;;17.85;13.85;;;9.70;91.10;;;;;;5073059;28;20247;-64
2021/10/12 07:12:41;;;;;;;19.88;12.93;;;9.80;91.00;;;;;;5073372;28;20202;-64
2021/10/12 07:15:09;;;;;;;17.13;12.15;;;9.80;91.10;;;;;;5073095;28;20558;-64
2021/10/12 07:17:38;;;;;;;14.13;11.35;;;9.90;91.20;;;;;;5073466;28;20247;-64
2021/10/12 07:20:09;;;;;;;17.02;11.40;;;10.00;90.50;;;;;;5073037;28;20178;-63
2021/10/12 07:22:37;;;;;;;20.60;11.70;;;10.00;90.10;;;;;;5072623;28;20214;-64
2021/10/12 07:25:06;;;;;;;18.52;11.40;;;10.10;89.30;;;;;;5072949;28;20185;-64
2021/10/12 07:27:34;;;;;;;17.35;12.55;;;10.20;89.50;;;;;;5073479;28;20200;-64
2021/10/12 07:30:01;;;;;;;16.23;12.35;;;10.30;89.80;;;;;;5072568;28;20189;-65
2021/10/12 07:32:28;;;;;;;17.85;11.32;;;10.40;88.60;;;;;;5069175;28;20189;-64
2021/10/12 07:34:55;;;;;;;17.15;10.30;;;10.50;88.10;;;;;;5073056;28;20197;-64
2021/10/12 07:37:24;;;;;;;18.65;11.27;;;10.60;88.00;;;;;;5073451;28;20228;-63
2021/10/12 07:39:51;;;;;;;19.25;12.00;;;10.60;88.00;;;;;;5072831;28;20201;-65
2021/10/12 07:42:18;;;;;;;15.82;11.10;;;10.60;87.50;;;;;;5072708;28;20218;-64
2021/10/12 07:44:45;;;;;;;25.45;16.10;;;10.70;87.10;;;;;;5073371;28;20760;-64
2021/10/12 07:47:12;;;;;;;26.55;19.88;;;10.70;86.50;;;;;;5072759;28;20221;-64
2021/10/12 07:49:39;;;;;;;16.20;11.98;;;10.70;86.40;;;;;;5072530;28;20189;-65
2021/10/12 07:52:07;;;;;;;13.40;10.20;;;10.70;86.30;;;;;;5073210;28;20288;-64
2021/10/12 07:54:45;;;;;;;21.02;14.40;;;10.70;85.80;;;;;;5072840;28;20205;-64
2021/10/12 07:57:14;;;;;;;18.42;12.23;;;10.70;85.80;;;;;;5070192;28;20243;-64
2021/10/12 07:59:44;;;;;;;16.98;11.77;;;10.70;86.10;;;;;;5072543;28;20281;-64
2021/10/12 08:02:12;;;;;;;22.27;11.13;;;10.70;86.00;;;;;;5072188;28;20214;-64
2021/10/12 08:04:40;;;;;;;16.10;11.27;;;10.70;86.00;;;;;;5072566;28;20658;-64
2021/10/12 08:07:07;;;;;;;15.77;11.55;;;10.70;86.20;;;;;;5071902;28;20276;-64
2021/10/12 08:09:36;;;;;;;22.52;16.52;;;10.70;86.00;;;;;;5072463;28;20197;-64
2021/10/12 08:12:05;;;;;;;27.35;17.92;;;10.60;86.20;;;;;;5072016;28;20280;-64
2021/10/12 08:14:36;;;;;;;17.92;13.05;;;10.60;86.60;;;;;;5068601;28;20185;-64
2021/10/12 08:17:04;;;;;;;17.95;11.00;;;10.60;87.30;;;;;;5072023;28;20193;-67
2021/10/12 08:19:31;;;;;;;14.48;10.50;;;10.50;86.70;;;;;;5072106;28;20239;-64
2021/10/12 08:21:58;;;;;;;13.88;10.93;;;10.50;87.30;;;;;;5071902;28;20240;-64
2021/10/12 08:24:25;;;;;;;12.23;9.40;;;10.60;88.00;;;;;;5072153;28;20280;-65
2021/10/12 08:26:53;;;;;;;12.93;10.80;;;10.60;88.20;;;;;;5072757;28;20611;-64
2021/10/12 08:29:20;;;;;;;15.15;9.00;;;10.60;88.60;;;;;;5071981;28;20281;-63
2021/10/12 08:31:47;;;;;;;17.60;10.95;;;10.60;88.70;;;;;;5071342;28;20193;-63
2021/10/12 08:34:16;;;;;;;12.82;9.50;;;10.60;88.50;;;;;;5071714;28;20192;-64
2021/10/12 08:36:43;;;;;;;17.55;10.50;;;10.70;88.30;;;;;;5071933;28;20190;-63
2021/10/12 08:39:10;;;;;;;13.27;10.43;;;10.70;89.20;;;;;;5071979;28;20652;-64
2021/10/12 08:41:42;;;;;;;19.10;9.60;;;10.80;89.40;;;;;;5067471;28;20189;-63
2021/10/12 08:44:11;;;;;;;12.48;9.48;;;10.80;89.50;;;;;;5071396;28;20636;-63
2021/10/12 08:46:39;;;;;;;15.20;10.07;;;10.90;88.90;;;;;;5071990;28;20273;-64
2021/10/12 08:49:05;;;;;;;13.65;11.63;;;11.00;88.00;;;;;;5071676;28;20281;-63
2021/10/12 08:51:32;;;;;;;17.20;11.75;;;11.00;88.00;;;;;;5070588;28;20190;-63
2021/10/12 08:53:59;;;;;;;16.75;10.20;;;11.10;88.40;;;;;;5071560;28;20281;-65
2021/10/12 08:56:26;;;;;;;15.30;12.50;;;11.10;89.00;;;;;;5071251;28;20629;-63
2021/10/12 08:58:54;;;;;;;18.00;13.70;;;11.20;89.40;;;;;;5071071;28;20276;-64
2021/10/12 09:01:22;;;;;;;17.80;10.98;;;11.20;89.60;;;;;;5071329;28;20186;-64
2021/10/12 09:03:58;;;;;;;14.27;10.65;;;11.20;88.40;;;;;;5070437;28;20308;-63
2021/10/12 09:06:29;;;;;;;17.23;10.80;;;11.20;88.30;;;;;;5067278;28;20654;-64
2021/10/12 09:09:01;;;;;;;14.40;11.25;;;11.20;87.90;;;;;;5071081;28;20225;-64
2021/10/12 09:11:29;;;;;;;15.93;11.50;;;11.30;88.00;;;;;;5069410;28;20258;-64
2021/10/12 09:14:05;;;;;;;13.55;10.30;;;11.30;87.30;;;;;;5067728;28;20190;-64
2021/10/12 09:16:37;;;;;;;16.85;10.93;;;11.30;87.30;;;;;;5069631;28;20243;-64
2021/10/12 09:19:07;;;;;;;13.70;10.38;;;11.40;87.80;;;;;;5067790;28;20284;-63
2021/10/12 09:21:36;;;;;;;17.83;13.02;;;11.50;87.40;;;;;;5071600;28;20292;-63
2021/10/12 09:24:09;;;;;;;15.70;11.27;;;11.40;86.70;;;;;;5071120;28;20308;-64
2021/10/12 09:26:38;;;;;;;14.13;11.07;;;11.50;86.50;;;;;;5067265;28;20193;-63
2021/10/12 09:29:10;;;;;;;15.40;10.90;;;11.60;87.10;;;;;;5071187;28;20316;-63
2021/10/12 09:31:41;;;;;;;13.85;10.30;;;11.60;87.30;;;;;;5069920;28;20225;-64
2021/10/12 09:34:09;;;;;;;21.55;15.63;;;11.60;84.90;;;;;;5067671;28;20628;-63
2021/10/12 09:36:41;;;;;;;19.17;13.73;;;11.50;85.50;;;;;;5071029;28;20281;-63
2021/10/12 09:39:14;;;;;;;17.58;12.35;;;11.50;86.10;;;;;;5070611;28;20281;-64
2021/10/12 09:41:42;;;;;;;14.85;10.98;;;11.40;86.70;;;;;;5069989;28;20186;-63
2021/10/12 09:44:15;;;;;;;17.65;11.00;;;11.50;86.90;;;;;;5069771;28;20308;-63
2021/10/12 09:46:46;;;;;;;16.25;11.10;;;11.60;87.00;;;;;;5069773;28;20272;-64
2021/10/12 09:49:18;;;;;;;14.90;10.18;;;11.60;86.00;;;;;;5070596;28;20200;-64
2021/10/12 09:51:56;;;;;;;11.73;9.25;;;11.70;86.60;;;;;;5070733;28;20712;-64
2021/10/12 09:54:25;;;;;;;12.55;9.95;;;11.80;86.40;;;;;;5067653;28;20643;-63
2021/10/12 09:56:52;;;;;;;14.85;10.85;;;11.80;86.20;;;;;;5070584;28;20203;-63
2021/10/12 09:59:20;;;;;;;12.57;10.18;;;11.90;85.80;;;;;;5070055;28;20500;-64
2021/10/12 10:01:49;;;;;;;11.82;8.73;;;11.90;85.60;;;;;;5066516;28;20655;-64
2021/10/12 10:04:19;;;;;;;15.60;9.52;;;11.80;85.50;;;;;;5074299;28;20228;-63
2021/10/12 10:06:48;;;;;;;14.07;8.88;;;11.80;85.30;;;;;;5074317;28;20300;-65
2021/10/12 10:09:16;;;;;;;7.97;7.18;;;11.80;85.30;;;;;;5070220;28;20753;-64
2021/10/12 10:11:43;;;;;;;12.55;8.45;;;11.80;85.00;;;;;;5074363;28;20683;-63
2021/10/12 10:14:12;;;;;;;11.52;7.53;;;11.70;84.70;;;;;;5074082;28;20243;-66
2021/10/12 10:16:40;;;;;;;12.20;7.38;;;11.70;84.80;;;;;;5073730;28;20209;-64
2021/10/12 10:19:13;;;;;;;14.20;7.80;;;11.70;84.50;;;;;;5071136;28;20280;-66
2021/10/12 10:21:46;;;;;;;12.45;7.03;;;11.70;83.60;;;;;;5073407;28;20186;-63
2021/10/12 10:24:19;;;;;;;10.63;6.60;;;11.70;83.70;;;;;;5071924;28;20560;-64
2021/10/12 10:26:47;;;;;;;11.00;6.80;;;11.70;83.20;;;;;;5073109;28;20189;-63
2021/10/12 10:29:25;;;;;;;8.43;6.25;;;11.60;82.80;;;;;;5070469;28;20189;-63
2021/10/12 10:31:56;;;;;;;9.60;6.25;;;11.60;83.10;;;;;;5072883;28;20214;-64
2021/10/12 10:34:41;;;;;;;9.38;5.93;;;11.60;83.70;;;;;;5072500;28;20193;-63
2021/10/12 10:37:33;;;;;;;8.02;5.80;;;11.60;82.70;;;;;;5071608;28;20200;-64
2021/10/12 10:40:24;;;;;;;7.03;5.80;;;11.60;82.60;;;;;;5070423;28;20691;-64
2021/10/12 10:42:55;;;;;;;7.40;5.10;;;11.50;83.10;;;;;;5072015;28;20253;-65
2021/10/12 10:45:45;;;;;;;8.13;5.43;;;11.50;83.50;;;;;;5072470;28;20235;-64
2021/10/12 10:48:14;;;;;;;6.38;5.18;;;11.50;83.30;;;;;;5071169;28;20596;-64
2021/10/12 10:50:42;;;;;;;8.05;6.25;;;11.60;83.40;;;;;;5072115;28;20233;-64
2021/10/12 10:53:11;;;;;;;5.63;4.20;;;11.60;83.20;;;;;;5072461;28;20549;-65
2021/10/12 10:55:40;;;;;;;8.15;5.80;;;11.60;82.60;;;;;;5071829;28;20277;-65
2021/10/12 10:58:19;;;;;;;7.68;4.85;;;11.60;82.90;;;;;;5069004;28;20273;-65
2021/10/12 11:00:48;;;;;;;9.45;5.10;;;11.60;82.40;;;;;;5072882;28;20190;-64
2021/10/12 11:03:40;;;;;;;5.95;4.55;;;11.60;82.20;;;;;;5072699;28;20312;-65
2021/10/12 11:06:16;;;;;;;6.75;5.10;;;11.50;82.20;;;;;;5069923;28;20629;-64
2021/10/12 11:08:57;;;;;;;8.88;5.28;;;11.50;82.50;;;;;;5072633;28;20217;-64
2021/10/12 11:11:24;;;;;;;5.85;4.82;;;11.50;82.80;;;;;;5072035;28;20181;-64
2021/10/12 11:13:52;;;;;;;8.20;5.60;;;11.40;82.60;;;;;;5072658;28;20200;-64
2021/10/12 11:16:19;;;;;;;7.68;5.53;;;11.40;83.10;;;;;;5069080;28;20284;-64
2021/10/12 11:18:59;;;;;;;8.07;7.05;;;11.40;83.50;;;;;;5071461;28;20193;-64
2021/10/12 11:21:28;;;;;;;11.77;5.95;;;11.40;84.10;;;;;;5069602;28;20208;-64
2021/10/12 11:23:57;;;;;;;9.75;8.75;;;11.40;85.40;;;;;;5071812;28;20229;-63
2021/10/12 11:26:27;;;;;;;8.88;5.30;;;11.40;85.00;;;;;;5071220;28;20532;-64
2021/10/12 11:28:56;;;;;;;9.50;6.13;;;11.40;84.80;;;;;;5069633;28;20281;-64
2021/10/12 11:31:25;;;;;;;7.53;5.82;;;11.40;84.70;;;;;;5071858;28;20232;-63
2021/10/12 11:33:53;;;;;;;7.82;6.00;;;11.40;84.80;;;;;;5070844;28;20224;-64
2021/10/12 11:36:25;;;;;;;10.13;7.03;;;11.40;85.00;;;;;;5071855;28;20593;-64
2021/10/12 11:38:55;;;;;;;10.93;8.00;;;11.50;84.70;;;;;;5071533;28;20205;-64
2021/10/12 11:41:28;;;;;;;9.38;7.70;;;11.50;84.60;;;;;;5071897;28;20272;-64
2021/10/12 11:43:57;;;;;;;13.73;9.02;;;11.50;86.20;;;;;;5071937;28;20722;-64
2021/10/12 11:46:30;;;;;;;12.25;7.50;;;11.50;85.00;;;;;;5071705;28;20652;-64
2021/10/12 11:48:58;;;;;;;9.85;6.35;;;11.40;83.70;;;;;;5069706;28;20197;-64
2021/10/12 11:51:26;;;;;;;10.10;7.57;;;11.40;83.90;;;;;;5071821;28;20204;-64
2021/10/12 11:53:57;;;;;;;10.52;6.35;;;11.40;83.70;;;;;;5071404;28;20213;-64
2021/10/12 11:56:25;;;;;;;12.80;9.48;;;11.40;82.60;;;;;;5071739;28;20198;-68
2021/10/12 11:58:57;;;;;;;10.65;7.22;;;11.30;82.30;;;;;;5071397;28;20185;-65
2021/10/12 12:01:29;;;;;;;13.68;10.45;;;11.30;81.60;;;;;;5071254;28;20243;-64
2021/10/12 12:03:57;;;;;;;15.13;9.80;;;11.30;82.70;;;;;;5068946;28;20222;-64
2021/10/12 12:06:28;;;;;;;14.93;11.07;;;11.30;84.00;;;;;;5070053;28;20198;-65
2021/10/12 12:08:58;;;;;;;14.25;10.85;;;11.30;84.40;;;;;;5070293;28;20585;-64
2021/10/12 12:11:27;;;;;;;13.55;9.45;;;11.30;83.60;;;;;;5069075;28;20220;-64
2021/10/12 12:13:56;;;;;;;12.40;8.90;;;11.30;84.30;;;;;;5071102;28;20206;-64
2021/10/12 12:16:25;;;;;;;8.75;7.10;;;11.30;83.30;;;;;;5070000;28;20204;-65
2021/10/12 12:18:52;;;;;;;19.05;14.85;;;11.30;82.60;;;;;;5070673;28;20228;-64
2021/10/12 12:21:33;;;;;;;11.13;7.95;;;11.30;83.10;;;;;;5071023;28;20228;-64
2021/10/12 12:24:03;;;;;;;11.88;9.90;;;11.30;83.30;;;;;;5070374;28;20225;-64
2021/10/12 12:26:32;;;;;;;13.20;9.50;;;11.30;84.20;;;;;;5070131;28;20236;-64
2021/10/12 12:29:16;;;;;;;12.38;9.23;;;11.30;84.00;;;;;;5069935;28;20193;-64
2021/10/12 12:31:51;;;;;;;13.27;8.60;;;11.40;84.70;;;;;;5069071;28;20247;-63
2021/10/12 12:34:41;;;;;;;14.50;10.95;;;11.40;85.40;;;;;;5072811;28;20200;-66
2021/10/12 12:37:08;;;;;;;13.75;10.20;;;11.50;85.90;;;;;;5070728;28;20221;-63
2021/10/12 12:39:41;;;;;;;16.10;9.57;;;11.50;84.80;;;;;;5069921;28;20284;-64
2021/10/12 12:42:28;;;;;;;12.20;8.55;;;11.50;85.20;;;;;;5070401;28;20197;-64
2021/10/12 12:45:10;;;;;;;12.30;7.97;;;11.50;85.40;;;;;;5070586;28;20312;-63